Time;durP1;ratioP1;P1;durP2;ratioP2;P2;SDS_P1;SDS_P2;PMS_P1;PMS_P2;Temp;Humidity;BMP_temperature;BMP_pressure;BME280_temperature;BME280_humidity;BME280_pressure;Samples;Min_cycle;Max_cycle;Signal;HPM_P1;HPM_P2
2023/05/26 00:02:13;;;;;;;;;;;;;;;9.18;100.00;102869.69;5016658;28;19951;-87
2023/05/26 00:04:43;;;;;;;;;;;;;;;9.10;100.00;102864.63;5032727;28;20381;-87
2023/05/26 00:07:08;;;;;;;;;;;;;;;9.02;100.00;102872.09;5018987;28;19921;-87
2023/05/26 00:09:33;;;;;;;;;;;;;;;8.96;100.00;102867.84;5033946;28;19917;-87
2023/05/26 00:12:01;;;;;;;;;;;;;;;8.91;100.00;102874.34;5013228;28;20350;-86
2023/05/26 00:14:27;;;;;;;;;;;;;;;8.96;100.00;102872.34;5013974;28;20303;-87
2023/05/26 00:16:53;;;;;;;;;;;;;;;8.92;100.00;102876.09;5022071;28;19920;-87
2023/05/26 00:19:19;;;;;;;;;;;;;;;8.96;100.00;102878.56;5021986;28;19928;-87
2023/05/26 00:21:44;;;;;;;;;;;;;;;8.97;100.00;102879.47;5030094;28;19963;-86
2023/05/26 00:24:10;;;;;;;;;;;;;;;8.81;100.00;102879.16;5014166;28;19921;-87
2023/05/26 00:26:35;;;;;;;;;;;;;;;8.91;100.00;102877.88;5035476;28;19921;-86
2023/05/26 00:29:00;;;;;;;;;;;;;;;8.83;100.00;102882.66;5020163;28;19970;-85
2023/05/26 00:31:25;;;;;;;;;;;;;;;8.78;100.00;102876.59;5019675;28;20334;-83
2023/05/26 00:33:51;;;;;;;;;;;;;;;8.77;100.00;102882.88;5011307;28;20335;-86
2023/05/26 00:36:17;;;;;;;;;;;;;;;8.73;100.00;102889.28;5012639;28;19964;-87
2023/05/26 00:38:42;;;;;;;;;;;;;;;8.78;100.00;102890.84;5020143;28;20367;-85
2023/05/26 00:41:07;;;;;;;;;;;;;;;8.80;100.00;102894.34;5013119;28;19921;-86
2023/05/26 00:43:32;;;;;;;;;;;;;;;8.78;100.00;102888.19;5015618;28;19955;-86
2023/05/26 00:46:00;;;;;;;;;;;;;;;8.74;100.00;102888.34;5026885;28;20012;-86
2023/05/26 00:48:26;;;;;;;;;;;;;;;8.61;100.00;102888.78;5027525;28;20331;-86
2023/05/26 00:50:53;;;;;;;;;;;;;;;8.50;100.00;102885.66;5009874;28;20108;-87
2023/05/26 00:53:19;;;;;;;;;;;;;;;8.48;100.00;102874.09;5029174;28;19947;-87
2023/05/26 00:55:50;;;;;;;;;;;;;;;8.47;100.00;102875.91;5006569;28;20147;-87
2023/05/26 00:58:16;;;;;;;;;;;;;;;8.44;100.00;102885.84;5008453;28;19928;-87
2023/05/26 01:00:41;;;;;;;;;;;;;;;8.30;100.00;102887.22;5011496;28;19925;-86
2023/05/26 01:03:11;;;;;;;;;;;;;;;8.36;100.00;102892.34;5021539;28;19935;-86
2023/05/26 01:05:36;;;;;;;;;;;;;;;8.36;100.00;102888.78;5023863;28;20271;-86
2023/05/26 01:08:02;;;;;;;;;;;;;;;8.34;100.00;102891.50;5037964;28;19925;-83
2023/05/26 01:10:31;;;;;;;;;;;;;;;8.32;100.00;102892.50;5024541;28;20015;-87
2023/05/26 01:12:58;;;;;;;;;;;;;;;8.28;100.00;102899.78;5031007;28;19927;-87
2023/05/26 01:15:27;;;;;;;;;;;;;;;8.29;100.00;102901.53;5021135;28;19925;-87
2023/05/26 01:18:06;;;;;;;;;;;;;;;8.25;100.00;102895.38;5022283;28;19917;-86
2023/05/26 01:20:31;;;;;;;;;;;;;;;8.13;100.00;102894.94;5017739;28;19943;-87
2023/05/26 01:23:05;;;;;;;;;;;;;;;8.11;100.00;102897.69;5042346;28;19946;-87
2023/05/26 01:25:49;;;;;;;;;;;;;;;8.02;100.00;102896.22;5025537;28;20053;-88
2023/05/26 01:28:14;;;;;;;;;;;;;;;8.00;100.00;102892.72;5058054;28;19916;-88
2023/05/26 01:30:40;;;;;;;;;;;;;;;8.01;100.00;102898.91;5036458;28;20386;-87
2023/05/26 01:33:05;;;;;;;;;;;;;;;7.97;100.00;102900.84;5020658;28;19921;-87
2023/05/26 01:35:30;;;;;;;;;;;;;;;7.97;100.00;102900.84;5044965;28;20435;-84
2023/05/26 01:37:56;;;;;;;;;;;;;;;7.96;100.00;102891.91;5045438;28;19951;-89
2023/05/26 01:40:27;;;;;;;;;;;;;;;7.94;100.00;102887.56;5024936;28;19932;-88
2023/05/26 01:42:57;;;;;;;;;;;;;;;7.96;100.00;102899.94;5039650;28;19974;-86
2023/05/26 01:45:24;;;;;;;;;;;;;;;7.85;100.00;102893.22;5025202;28;20003;-87
2023/05/26 01:47:50;;;;;;;;;;;;;;;7.76;100.00;102891.72;5039293;28;19948;-88
2023/05/26 01:50:17;;;;;;;;;;;;;;;7.85;100.00;102895.88;5041361;28;19935;-86
2023/05/26 01:52:43;;;;;;;;;;;;;;;7.92;100.00;102894.75;5046352;28;19921;-86
2023/05/26 01:55:08;;;;;;;;;;;;;;;7.88;100.00;102887.75;5039001;28;19925;-86
2023/05/26 01:57:34;;;;;;;;;;;;;;;7.81;100.00;102898.66;5022869;28;19944;-86
2023/05/26 01:59:59;;;;;;;;;;;;;;;7.80;100.00;102902.28;5019846;28;20290;-86
2023/05/26 02:02:24;;;;;;;;;;;;;;;7.78;100.00;102905.91;5033074;28;19931;-87
2023/05/26 02:04:49;;;;;;;;;;;;;;;7.74;100.00;102905.16;5034747;28;19920;-86
2023/05/26 02:07:15;;;;;;;;;;;;;;;7.71;100.00;102913.28;5023302;28;20272;-86
2023/05/26 02:09:40;;;;;;;;;;;;;;;7.68;100.00;102902.66;5041759;28;20492;-86
2023/05/26 02:12:11;;;;;;;;;;;;;;;7.64;100.00;102904.59;5020963;28;20703;-86
2023/05/26 02:14:36;;;;;;;;;;;;;;;7.64;100.00;102911.72;5015923;28;19927;-86
2023/05/26 02:17:02;;;;;;;;;;;;;;;7.60;100.00;102902.94;5027267;28;19921;-83
2023/05/26 02:19:27;;;;;;;;;;;;;;;7.59;100.00;102911.88;5042363;28;19920;-86
2023/05/26 02:21:52;;;;;;;;;;;;;;;7.49;100.00;102908.63;5018400;28;19928;-87
2023/05/26 02:24:17;;;;;;;;;;;;;;;7.51;100.00;102908.56;5018998;28;20317;-86
2023/05/26 02:26:45;;;;;;;;;;;;;;;7.44;100.00;102912.34;5042061;28;20586;-88
2023/05/26 02:29:11;;;;;;;;;;;;;;;7.50;100.00;102920.16;5019732;28;19924;-84
2023/05/26 02:31:37;;;;;;;;;;;;;;;7.53;100.00;102914.72;5026206;28;20306;-86
2023/05/26 02:34:04;;;;;;;;;;;;;;;7.50;100.00;102915.72;5044153;28;19928;-85
2023/05/26 02:36:31;;;;;;;;;;;;;;;7.44;100.00;102915.91;5028277;28;19917;-86
2023/05/26 02:38:56;;;;;;;;;;;;;;;7.46;100.00;102914.06;5023709;28;19960;-87
2023/05/26 02:41:22;;;;;;;;;;;;;;;7.49;100.00;102923.75;5024546;28;20013;-87
2023/05/26 02:43:47;;;;;;;;;;;;;;;7.52;100.00;102915.66;5012074;28;19960;-84
2023/05/26 02:46:13;;;;;;;;;;;;;;;7.52;100.00;102923.66;5041899;28;19924;-87
2023/05/26 02:48:39;;;;;;;;;;;;;;;7.52;100.00;102912.13;5025622;28;20458;-88
2023/05/26 02:51:04;;;;;;;;;;;;;;;7.52;100.00;102914.78;5027083;28;19928;-86
2023/05/26 02:53:29;;;;;;;;;;;;;;;7.57;100.00;102912.81;5039709;28;20438;-87
2023/05/26 02:55:56;;;;;;;;;;;;;;;7.52;100.00;102912.97;5026819;28;19960;-86
2023/05/26 02:58:21;;;;;;;;;;;;;;;7.53;100.00;102914.72;5026765;28;20425;-87
2023/05/26 03:00:46;;;;;;;;;;;;;;;7.50;100.00;102912.16;5020137;28;19921;-86
2023/05/26 03:03:12;;;;;;;;;;;;;;;7.48;100.00;102911.31;5023816;28;19967;-88
2023/05/26 03:05:37;;;;;;;;;;;;;;;7.45;100.00;102914.09;5021057;28;20264;-86
2023/05/26 03:08:03;;;;;;;;;;;;;;;7.44;100.00;102910.56;5039135;28;19960;-88
2023/05/26 03:10:29;;;;;;;;;;;;;;;7.44;100.00;102912.34;5029360;28;19971;-86
2023/05/26 03:12:54;;;;;;;;;;;;;;;7.39;100.00;102908.97;5020954;28;19924;-86
2023/05/26 03:15:19;;;;;;;;;;;;;;;7.39;100.00;102912.50;5013795;28;19920;-85
2023/05/26 03:17:44;;;;;;;;;;;;;;;7.45;100.00;102911.41;5025137;28;19935;-87
2023/05/26 03:20:11;;;;;;;;;;;;;;;7.40;100.00;102914.25;5029160;28;19970;-84
2023/05/26 03:22:36;;;;;;;;;;;;;;;7.42;100.00;102923.09;5016497;28;20352;-87
2023/05/26 03:25:03;;;;;;;;;;;;;;;7.43;100.00;102921.28;5023473;28;19971;-87
2023/05/26 03:27:28;;;;;;;;;;;;;;;7.41;100.00;102932.03;5017982;28;19983;-86
2023/05/26 03:29:53;;;;;;;;;;;;;;;7.30;100.00;102932.34;5040678;28;20624;-85
2023/05/26 03:32:18;;;;;;;;;;;;;;;7.25;100.00;102930.75;5023887;28;19920;-86
2023/05/26 03:34:44;;;;;;;;;;;;;;;7.20;100.00;102937.13;5022550;28;20446;-86
2023/05/26 03:37:10;;;;;;;;;;;;;;;7.24;100.00;102932.53;5025945;28;20552;-87
2023/05/26 03:39:35;;;;;;;;;;;;;;;7.22;100.00;102934.38;5026750;28;19960;-87
2023/05/26 03:42:01;;;;;;;;;;;;;;;7.20;100.00;102929.09;5027738;28;20009;-86
2023/05/26 03:44:26;;;;;;;;;;;;;;;7.20;100.00;102939.78;5039566;28;19921;-86
2023/05/26 03:46:52;;;;;;;;;;;;;;;7.22;100.00;102931.72;5057571;28;19928;-87
2023/05/26 03:49:17;;;;;;;;;;;;;;;7.29;100.00;102943.06;5024308;28;19921;-88
2023/05/26 03:51:42;;;;;;;;;;;;;;;7.26;100.00;102932.50;5025671;28;19920;-86
2023/05/26 03:54:08;;;;;;;;;;;;;;;7.28;100.00;102939.53;5023518;28;19921;-86
2023/05/26 03:56:33;;;;;;;;;;;;;;;7.27;100.00;102935.13;5041275;28;19929;-83
2023/05/26 03:58:58;;;;;;;;;;;;;;;7.25;100.00;102946.78;5013883;28;20198;-87
2023/05/26 04:01:24;;;;;;;;;;;;;;;7.23;100.00;102944.16;5020078;28;20015;-84
2023/05/26 04:03:57;;;;;;;;;;;;;;;7.24;100.00;102942.38;5042755;28;19928;-87
2023/05/26 04:06:27;;;;;;;;;;;;;;;7.23;100.00;102944.16;5037985;28;20225;-87
2023/05/26 04:08:59;;;;;;;;;;;;;;;7.30;100.00;102942.16;5017665;28;19960;-86
2023/05/26 04:11:25;;;;;;;;;;;;;;;7.24;100.00;102953.06;5023649;28;21123;-86
2023/05/26 04:13:50;;;;;;;;;;;;;;;7.29;100.00;102948.41;5020763;28;19928;-86
2023/05/26 04:16:16;;;;;;;;;;;;;;;7.37;100.00;102945.53;5019172;28;19917;-85
2023/05/26 04:18:41;;;;;;;;;;;;;;;7.43;100.00;102953.34;5018796;28;19957;-86
2023/05/26 04:21:09;;;;;;;;;;;;;;;7.52;100.00;102960.25;5022183;28;19979;-85
2023/05/26 04:23:35;;;;;;;;;;;;;;;7.56;100.00;102954.72;5025722;28;19921;-85
2023/05/26 04:26:00;;;;;;;;;;;;;;;7.61;100.00;102954.59;5027739;28;19990;-85
2023/05/26 04:28:26;;;;;;;;;;;;;;;7.76;100.00;102955.91;5049850;28;20444;-85
2023/05/26 04:30:52;;;;;;;;;;;;;;;7.68;100.00;102961.50;5045251;28;19963;-85
2023/05/26 04:33:17;;;;;;;;;;;;;;;7.73;100.00;102962.22;5024772;28;19968;-85
2023/05/26 04:35:44;;;;;;;;;;;;;;;7.71;100.00;102958.72;5029078;28;19930;-85
2023/05/26 04:38:12;;;;;;;;;;;;;;;7.76;100.00;102963.91;5025925;28;19921;-85
2023/05/26 04:40:37;;;;;;;;;;;;;;;7.80;100.00;102962.91;5038862;28;20375;-84
2023/05/26 04:43:03;;;;;;;;;;;;;;;7.78;100.00;102957.63;5023273;28;19991;-85
2023/05/26 04:45:28;;;;;;;;;;;;;;;7.87;100.00;102964.47;5028151;28;19944;-85
2023/05/26 04:47:56;;;;;;;;;;;;;;;7.91;100.00;102960.78;5024275;28;21243;-86
2023/05/26 04:50:22;;;;;;;;;;;;;;;8.02;100.00;102965.75;5022828;28;19921;-86
2023/05/26 04:52:48;;;;;;;;;;;;;;;8.03;100.00;102967.50;5018459;28;19979;-86
2023/05/26 04:55:13;;;;;;;;;;;;;;;8.04;100.00;102971.94;5038743;28;19956;-84
2023/05/26 04:57:38;;;;;;;;;;;;;;;8.04;100.00;102969.25;5019797;28;19955;-85
2023/05/26 05:00:05;;;;;;;;;;;;;;;8.13;100.00;102969.88;5023500;28;19925;-85
2023/05/26 05:02:31;;;;;;;;;;;;;;;8.19;100.00;102977.69;5022310;28;19967;-85
2023/05/26 05:04:56;;;;;;;;;;;;;;;8.15;100.00;102971.59;5021469;28;19917;-84
2023/05/26 05:07:21;;;;;;;;;;;;;;;8.33;100.00;102964.75;5039584;28;19921;-87
2023/05/26 05:09:47;;;;;;;;;;;;;;;8.35;100.00;102967.34;5022763;28;19924;-85
2023/05/26 05:12:12;;;;;;;;;;;;;;;8.36;100.00;102977.13;5023469;28;19925;-86
2023/05/26 05:14:37;;;;;;;;;;;;;;;8.35;100.00;102980.72;5020133;28;19959;-85
2023/05/26 05:17:02;;;;;;;;;;;;;;;8.45;100.00;102978.59;5020485;28;19925;-86
2023/05/26 05:19:28;;;;;;;;;;;;;;;8.42;100.00;102979.59;5021159;28;19927;-86
2023/05/26 05:21:53;;;;;;;;;;;;;;;8.54;100.00;102975.66;5022625;28;19917;-82
2023/05/26 05:24:19;;;;;;;;;;;;;;;8.56;100.00;102979.16;5034188;28;20377;-87
2023/05/26 05:26:44;;;;;;;;;;;;;;;8.68;100.00;102985.88;5024491;28;19923;-86
2023/05/26 05:29:10;;;;;;;;;;;;;;;8.74;100.00;102988.31;5028374;28;19925;-85
2023/05/26 05:31:35;;;;;;;;;;;;;;;8.75;100.00;102989.19;5021149;28;20011;-86
2023/05/26 05:34:01;;;;;;;;;;;;;;;8.86;100.00;102989.72;5041921;28;19974;-85
2023/05/26 05:36:26;;;;;;;;;;;;;;;8.96;100.00;102999.13;5044639;28;19921;-87
2023/05/26 05:38:51;;;;;;;;;;;;;;;8.96;100.00;102992.91;5034530;28;19917;-84
2023/05/26 05:41:16;;;;;;;;;;;;;;;8.99;100.00;102996.34;5039691;28;19932;-83
2023/05/26 05:43:42;;;;;;;;;;;;;;;9.03;100.00;102990.88;5027390;28;19924;-85
2023/05/26 05:46:07;;;;;;;;;;;;;;;9.18;100.00;103000.16;5044456;28;19913;-85
2023/05/26 05:48:32;;;;;;;;;;;;;;;9.19;100.00;103000.09;5043358;28;19959;-84
2023/05/26 05:50:57;;;;;;;;;;;;;;;9.26;100.00;103000.75;5028894;28;20341;-85
2023/05/26 05:53:22;;;;;;;;;;;;;;;9.25;100.00;102991.81;5028927;28;20302;-84
2023/05/26 05:55:48;;;;;;;;;;;;;;;9.30;100.00;103005.94;5019025;28;19960;-85
2023/05/26 05:58:13;;;;;;;;;;;;;;;9.28;100.00;103002.44;5015972;28;20004;-85
2023/05/26 06:00:39;;;;;;;;;;;;;;;9.47;100.00;103011.59;5029022;28;19927;-85
2023/05/26 06:03:04;;;;;;;;;;;;;;;9.51;100.00;103008.72;5020526;28;19931;-86
2023/05/26 06:05:29;;;;;;;;;;;;;;;9.52;100.00;103010.47;5023269;28;20033;-86
2023/05/26 06:07:54;;;;;;;;;;;;;;;9.62;100.00;103015.50;5017793;28;19921;-85
2023/05/26 06:10:20;;;;;;;;;;;;;;;9.74;100.00;103018.56;5043546;28;20353;-86
2023/05/26 06:12:45;;;;;;;;;;;;;;;9.83;100.00;103017.31;5021487;28;19921;-85
2023/05/26 06:15:10;;;;;;;;;;;;;;;9.92;100.00;103029.47;5041807;28;19925;-86
2023/05/26 06:17:36;;;;;;;;;;;;;;;9.88;100.00;103031.44;5026754;28;19921;-86
2023/05/26 06:20:02;;;;;;;;;;;;;;;9.90;100.00;103023.31;5043843;28;19932;-87
2023/05/26 06:22:27;;;;;;;;;;;;;;;10.04;100.00;103023.63;5022007;28;19943;-85
2023/05/26 06:24:52;;;;;;;;;;;;;;;10.02;100.00;103022.81;5043022;28;20351;-84
2023/05/26 06:27:18;;;;;;;;;;;;;;;10.09;100.00;103022.56;5044304;28;20015;-85
2023/05/26 06:29:44;;;;;;;;;;;;;;;10.16;100.00;103026.75;5013649;28;19917;-86
2023/05/26 06:32:09;;;;;;;;;;;;;;;10.23;100.00;103025.56;5030849;28;20615;-87
2023/05/26 06:34:34;;;;;;;;;;;;;;;10.28;100.00;103020.88;5026835;28;20279;-86
2023/05/26 06:37:00;;;;;;;;;;;;;;;10.38;100.00;103017.78;5025437;28;20599;-88
2023/05/26 06:39:26;;;;;;;;;;;;;;;10.52;100.00;103019.91;5020207;28;19978;-83
2023/05/26 06:41:51;;;;;;;;;;;;;;;10.70;100.00;103019.16;5018394;28;20332;-89
2023/05/26 06:44:17;;;;;;;;;;;;;;;10.77;100.00;103017.06;5037443;28;19948;-88
2023/05/26 06:46:42;;;;;;;;;;;;;;;10.82;100.00;103015.03;5019279;28;19928;-86
2023/05/26 06:49:07;;;;;;;;;;;;;;;10.96;100.00;103022.50;5022258;28;19944;-87
2023/05/26 06:51:33;;;;;;;;;;;;;;;11.27;100.00;103018.38;5039850;28;19921;-86
2023/05/26 06:53:58;;;;;;;;;;;;;;;11.29;100.00;103021.03;5024415;28;19921;-87
2023/05/26 06:56:23;;;;;;;;;;;;;;;11.40;100.00;103022.28;5035950;28;19921;-86
2023/05/26 06:58:48;;;;;;;;;;;;;;;11.48;100.00;103023.75;5023964;28;19921;-86
2023/05/26 07:01:13;;;;;;;;;;;;;;;11.59;100.00;103017.84;5027574;28;19917;-84
2023/05/26 07:03:39;;;;;;;;;;;;;;;11.70;100.00;103021.78;5021704;28;20026;-83
2023/05/26 07:06:04;;;;;;;;;;;;;;;11.82;100.00;103024.81;5026955;28;20228;-87
2023/05/26 07:08:29;;;;;;;;;;;;;;;12.00;100.00;103029.34;5034450;28;20355;-85
2023/05/26 07:10:55;;;;;;;;;;;;;;;11.91;100.00;103031.59;5024344;28;19932;-86
2023/05/26 07:13:20;;;;;;;;;;;;;;;12.15;100.00;103030.41;5020734;28;19924;-87
2023/05/26 07:15:45;;;;;;;;;;;;;;;12.16;100.00;103025.88;5029463;28;19924;-87
2023/05/26 07:18:10;;;;;;;;;;;;;;;12.14;100.00;103019.69;5022644;28;19924;-84
2023/05/26 07:20:42;;;;;;;;;;;;;;;12.08;100.00;103022.69;5025172;28;19947;-87
2023/05/26 07:23:07;;;;;;;;;;;;;;;11.88;100.00;103029.03;5024367;28;20291;-83
2023/05/26 07:25:32;;;;;;;;;;;;;;;11.87;100.00;103033.53;5038582;28;19932;-87
2023/05/26 07:27:58;;;;;;;;;;;;;;;11.87;100.00;103028.16;5032217;28;20020;-87
2023/05/26 07:30:23;;;;;;;;;;;;;;;12.05;100.00;103045.25;5045825;28;20007;-87
2023/05/26 07:32:48;;;;;;;;;;;;;;;12.23;100.00;103026.44;5039093;28;19974;-85
2023/05/26 07:35:13;;;;;;;;;;;;;;;12.22;100.00;103040.84;5028549;28;19917;-86
2023/05/26 07:37:40;;;;;;;;;;;;;;;12.25;100.00;103044.28;5026249;28;20287;-86
2023/05/26 07:40:05;;;;;;;;;;;;;;;12.11;100.00;103044.06;5044041;28;19917;-86
2023/05/26 07:42:31;;;;;;;;;;;;;;;12.02;100.00;103042.72;5043055;28;20272;-84
2023/05/26 07:44:56;;;;;;;;;;;;;;;12.15;100.00;103040.28;5027439;28;19913;-84
2023/05/26 07:47:25;;;;;;;;;;;;;;;12.15;100.00;103040.28;5028685;28;19958;-87
2023/05/26 07:49:51;;;;;;;;;;;;;;;12.11;100.00;103030.63;5026982;28;19920;-88
2023/05/26 07:52:16;;;;;;;;;;;;;;;12.27;100.00;103034.31;5022512;28;19975;-84
2023/05/26 07:54:41;;;;;;;;;;;;;;;12.43;100.00;103041.59;5029249;28;20366;-87
2023/05/26 07:57:07;;;;;;;;;;;;;;;12.48;100.00;103034.16;5038944;28;20372;-86
2023/05/26 07:59:32;;;;;;;;;;;;;;;12.52;100.00;103027.69;5040578;28;19948;-87
2023/05/26 08:01:57;;;;;;;;;;;;;;;12.60;99.77;103027.28;5044266;28;19921;-86
2023/05/26 08:04:23;;;;;;;;;;;;;;;12.96;100.00;103020.91;5021468;28;19987;-87
2023/05/26 08:06:48;;;;;;;;;;;;;;;12.93;100.00;103023.78;5027949;28;19957;-87
2023/05/26 08:09:13;;;;;;;;;;;;;;;12.76;97.85;103024.66;5021151;28;19921;-86
2023/05/26 08:11:38;;;;;;;;;;;;;;;12.75;99.69;103025.59;5042710;28;19921;-85
2023/05/26 08:14:03;;;;;;;;;;;;;;;12.93;99.88;103033.66;5020549;28;19947;-86
2023/05/26 08:16:29;;;;;;;;;;;;;;;12.94;100.00;103021.94;5016709;28;20089;-85
2023/05/26 08:18:54;;;;;;;;;;;;;;;13.20;96.38;103021.41;5022633;28;19954;-86
2023/05/26 08:21:19;;;;;;;;;;;;;;;13.27;99.43;103024.63;5015176;28;20240;-86
2023/05/26 08:23:45;;;;;;;;;;;;;;;13.29;97.54;103016.47;5037385;28;19931;-86
2023/05/26 08:26:10;;;;;;;;;;;;;;;13.56;98.16;103022.19;5027929;28;19964;-87
2023/05/26 08:28:35;;;;;;;;;;;;;;;13.39;94.00;103019.53;5012041;28;19932;-85
2023/05/26 08:31:00;;;;;;;;;;;;;;;13.47;93.66;103025.41;5031184;28;19958;-86
2023/05/26 08:33:25;;;;;;;;;;;;;;;13.55;95.22;103028.53;5029372;28;19928;-84
2023/05/26 08:35:51;;;;;;;;;;;;;;;13.67;90.96;103034.22;5012475;28;19943;-86
2023/05/26 08:38:16;;;;;;;;;;;;;;;13.65;86.96;103021.69;5013969;28;19963;-86
2023/05/26 08:40:41;;;;;;;;;;;;;;;13.80;87.41;103019.94;5019626;28;19999;-86
2023/05/26 08:43:11;;;;;;;;;;;;;;;13.71;82.77;103027.69;5031577;28;19934;-86
2023/05/26 08:45:37;;;;;;;;;;;;;;;13.89;79.63;103029.34;5039985;28;19947;-84
2023/05/26 08:48:02;;;;;;;;;;;;;;;13.92;85.60;103022.88;5032781;28;20741;-86
2023/05/26 08:50:33;;;;;;;;;;;;;;;14.04;81.22;103015.91;5042523;28;19916;-82
2023/05/26 08:53:01;;;;;;;;;;;;;;;14.19;85.92;103016.84;5036185;28;19917;-88
2023/05/26 08:55:27;;;;;;;;;;;;;;;14.11;85.96;103011.88;5037117;28;19920;-86
2023/05/26 08:57:52;;;;;;;;;;;;;;;14.29;88.87;103028.00;5031345;28;19978;-87
2023/05/26 09:00:19;;;;;;;;;;;;;;;14.33;87.02;103029.53;5034894;28;19921;-88
2023/05/26 09:02:45;;;;;;;;;;;;;;;14.29;78.14;103017.19;5025320;28;19921;-87
2023/05/26 09:05:13;;;;;;;;;;;;;;;14.32;86.88;103017.88;5028040;28;19925;-88
2023/05/26 09:07:39;;;;;;;;;;;;;;;14.48;81.71;103015.13;5039068;28;19921;-90
2023/05/26 09:10:23;;;;;;;;;;;;;;;14.70;79.90;103025.53;5023757;28;19924;-86
2023/05/26 09:12:48;;;;;;;;;;;;;;;14.75;80.51;103016.28;5036071;28;19917;-88
2023/05/26 09:15:21;;;;;;;;;;;;;;;14.81;79.53;103018.59;5021970;28;19982;-84
2023/05/26 09:17:47;;;;;;;;;;;;;;;14.76;75.44;103015.31;5039219;28;19931;-88
2023/05/26 09:20:12;;;;;;;;;;;;;;;15.10;85.37;103014.09;5026190;28;19925;-87
2023/05/26 09:22:38;;;;;;;;;;;;;;;15.23;78.57;103021.44;5024222;28;19920;-89
2023/05/26 09:25:03;;;;;;;;;;;;;;;15.08;76.25;103028.69;5053057;28;20011;-88
2023/05/26 09:27:28;;;;;;;;;;;;;;;15.17;78.95;103016.41;5019377;28;19924;-85
2023/05/26 09:29:54;;;;;;;;;;;;;;;15.30;75.99;103004.72;5042859;28;20381;-85
2023/05/26 09:32:23;;;;;;;;;;;;;;;15.40;70.96;103014.97;5019520;28;19948;-86
2023/05/26 09:34:52;;;;;;;;;;;;;;;15.56;74.58;103015.69;5024049;28;19950;-88
2023/05/26 09:37:35;;;;;;;;;;;;;;;15.63;70.89;103007.19;5021762;28;19921;-88
2023/05/26 09:40:10;;;;;;;;;;;;;;;15.75;77.52;103011.81;5043277;28;19935;-85
2023/05/26 09:42:36;;;;;;;;;;;;;;;15.95;72.13;103013.22;5039946;28;19936;-85
2023/05/26 09:45:01;;;;;;;;;;;;;;;15.81;70.78;103015.94;5022201;28;20599;-87
2023/05/26 09:47:30;;;;;;;;;;;;;;;16.10;68.28;103024.88;5025249;28;19912;-86
2023/05/26 09:50:01;;;;;;;;;;;;;;;15.77;68.35;103011.69;5045388;28;20596;-88
2023/05/26 09:52:26;;;;;;;;;;;;;;;16.50;67.77;103015.88;5038902;28;19928;-87
2023/05/26 09:54:54;;;;;;;;;;;;;;;16.70;66.59;103013.63;5037806;28;19921;-88
2023/05/26 09:57:19;;;;;;;;;;;;;;;16.76;62.01;103016.81;5043034;28;20015;-87
2023/05/26 09:59:44;;;;;;;;;;;;;;;16.72;61.36;103015.28;5022519;28;20019;-86
2023/05/26 10:02:16;;;;;;;;;;;;;;;17.02;62.59;103018.66;5025248;28;20023;-88
2023/05/26 10:04:41;;;;;;;;;;;;;;;17.00;62.14;103016.09;5039791;28;19925;-88
2023/05/26 10:07:06;;;;;;;;;;;;;;;17.25;60.51;103017.03;5015584;28;19971;-87
2023/05/26 10:09:32;;;;;;;;;;;;;;;17.12;60.08;103017.03;5044890;28;19958;-86
2023/05/26 10:11:57;;;;;;;;;;;;;;;17.56;60.44;103009.38;5036983;28;19971;-86
2023/05/26 10:14:22;;;;;;;;;;;;;;;17.58;61.75;103017.41;5033635;28;19921;-84
2023/05/26 10:16:48;;;;;;;;;;;;;;;17.63;57.90;103005.22;5031038;28;20366;-85
2023/05/26 10:19:13;;;;;;;;;;;;;;;17.43;58.40;103003.09;5019046;28;19917;-85
2023/05/26 10:21:40;;;;;;;;;;;;;;;17.93;59.84;102995.75;5028942;28;19960;-89
2023/05/26 10:24:09;;;;;;;;;;;;;;;17.86;55.54;102997.22;5025103;28;19921;-83
2023/05/26 10:26:55;;;;;;;;;;;;;;;17.95;57.08;102999.22;5033171;28;19925;-87
2023/05/26 10:29:21;;;;;;;;;;;;;;;18.35;55.15;103006.22;5032917;28;19917;-84
2023/05/26 10:31:47;;;;;;;;;;;;;;;18.29;56.06;102993.97;5015829;28;20323;-84
2023/05/26 10:34:12;;;;;;;;;;;;;;;18.37;53.84;102987.09;5019075;28;20007;-85
2023/05/26 10:36:38;;;;;;;;;;;;;;;18.71;53.34;102987.16;5014516;28;19983;-86
2023/05/26 10:39:18;;;;;;;;;;;;;;;19.17;53.31;102996.25;5015151;28;20232;-89
2023/05/26 10:41:49;;;;;;;;;;;;;;;19.38;52.52;102981.88;5017829;28;19925;-87
2023/05/26 10:44:41;;;;;;;;;;;;;;;19.67;47.65;102986.78;5018930;28;19931;-87
2023/05/26 10:47:16;;;;;;;;;;;;;;;19.64;49.32;102985.19;5026063;28;20808;-87
2023/05/26 10:49:59;;;;;;;;;;;;;;;19.59;50.20;102973.81;5028239;28;20150;-88
2023/05/26 10:52:25;;;;;;;;;;;;;;;20.47;47.31;102971.84;5020703;28;20342;-87
2023/05/26 10:54:51;;;;;;;;;;;;;;;20.59;46.33;102977.25;5039943;28;19921;-87
2023/05/26 10:57:32;;;;;;;;;;;;;;;20.63;43.13;102981.44;5018295;28;19928;-87
2023/05/26 10:59:58;;;;;;;;;;;;;;;20.61;43.41;102984.28;5016113;28;19920;-85
2023/05/26 11:02:25;;;;;;;;;;;;;;;20.71;44.37;102980.78;5028265;28;20917;-87
2023/05/26 11:04:50;;;;;;;;;;;;;;;20.51;47.37;102980.66;5043188;28;19996;-86
2023/05/26 11:07:18;;;;;;;;;;;;;;;;;;5019779;28;20413;-85
2023/05/26 11:10:02;;;;;;;;;;;;;;;21.41;44.45;102964.56;5043875;28;19916;-87
2023/05/26 11:12:58;;;;;;;;;;;;;;;21.28;43.92;102973.00;5041292;28;20105;-87
2023/05/26 11:15:32;;;;;;;;;;;;;;;21.66;43.07;102965.94;5029592;28;19959;-88
2023/05/26 11:18:05;;;;;;;;;;;;;;;22.60;41.71;102977.31;5031642;28;19920;-87
2023/05/26 11:20:31;;;;;;;;;;;;;;;22.56;38.17;102975.88;5031539;28;19925;-86
2023/05/26 11:22:56;;;;;;;;;;;;;;;22.60;38.64;102969.09;5048945;28;19951;-87
2023/05/26 11:25:22;;;;;;;;;;;;;;;22.52;44.39;102967.09;5047592;28;19935;-86
2023/05/26 11:27:47;;;;;;;;;;;;;;;23.38;41.14;102965.19;5028024;28;19917;-85
2023/05/26 11:30:13;;;;;;;;;;;;;;;23.13;39.55;102972.22;5038207;28;19928;-86
2023/05/26 11:32:48;;;;;;;;;;;;;;;23.36;38.78;102959.88;5045708;28;19951;-84
2023/05/26 11:35:20;;;;;;;;;;;;;;;22.90;38.81;102962.50;5027430;28;19943;-85
2023/05/26 11:37:45;;;;;;;;;;;;;;;23.55;38.51;102958.03;5028040;28;19917;-84
2023/05/26 11:40:12;;;;;;;;;;;;;;;23.53;38.64;102960.06;5027196;28;19929;-88
2023/05/26 11:42:37;;;;;;;;;;;;;;;23.51;37.10;102968.44;5030682;28;19917;-85
2023/05/26 11:45:03;;;;;;;;;;;;;;;23.32;35.63;102958.47;5026606;28;19932;-86
2023/05/26 11:47:29;;;;;;;;;;;;;;;23.43;34.97;102959.28;5023888;28;19917;-87
2023/05/26 11:49:54;;;;;;;;;;;;;;;23.74;37.28;102954.28;5043057;28;19967;-86
2023/05/26 11:52:24;;;;;;;;;;;;;;;24.63;35.34;102953.47;5027253;28;19949;-88
2023/05/26 11:54:49;;;;;;;;;;;;;;;25.29;35.04;102951.94;5027141;28;20521;-88
2023/05/26 11:57:25;;;;;;;;;;;;;;;24.23;33.79;102951.13;5041781;28;19932;-87
2023/05/26 11:59:51;;;;;;;;;;;;;;;24.46;35.15;102961.63;5049368;28;20320;-88
2023/05/26 12:02:16;;;;;;;;;;;;;;;25.16;33.68;102955.16;5026986;28;19928;-88
2023/05/26 12:04:41;;;;;;;;;;;;;;;25.37;33.27;102942.84;5043710;28;19924;-87
2023/05/26 12:07:07;;;;;;;;;;;;;;;25.48;30.61;102958.19;5028462;28;19964;-85
2023/05/26 12:09:32;;;;;;;;;;;;;;;25.52;30.98;102953.25;5036982;28;20055;-85
2023/05/26 12:11:57;;;;;;;;;;;;;;;25.17;34.41;102956.00;5040300;28;19927;-87
2023/05/26 12:14:22;;;;;;;;;;;;;;;25.12;32.49;102961.16;5034040;28;19913;-85
2023/05/26 12:16:50;;;;;;;;;;;;;;;25.08;32.18;102951.50;5024725;28;19960;-86
2023/05/26 12:19:18;;;;;;;;;;;;;;;25.55;33.47;102952.91;5020870;28;20015;-87
2023/05/26 12:21:56;;;;;;;;;;;;;;;26.08;29.53;102960.88;5023982;28;19932;-86
2023/05/26 12:24:30;;;;;;;;;;;;;;;25.26;32.74;102948.66;5035858;28;19964;-85
2023/05/26 12:26:55;;;;;;;;;;;;;;;25.62;32.44;102937.44;5042503;28;19924;-87
2023/05/26 12:29:21;;;;;;;;;;;;;;;26.24;32.94;102949.00;5045260;28;19967;-86
2023/05/26 12:31:48;;;;;;;;;;;;;;;25.56;34.16;102946.34;5042574;28;20541;-87
2023/05/26 12:34:14;;;;;;;;;;;;;;;26.21;32.03;102944.72;5035205;28;20046;-87